All Spectrum Aviation - Van Nuys Airport - KVNY

HOME

Condor Squadron KVNY Webcam

Visit our Electronics Store

Condor Squadron Webcam - Van Nuys Airport - KVNY
Picture taken: Tue, 12 Nov 2019 00:43:21 -0800
YouTube Channel!    Latest Timelapse Movie    Full Size Image    Regular Size Image    

2019/11/12 07:51 KVNY 120751Z AUTO 00000KT 5SM HZ CLR 14/12 A3005 RMK AO2 SLP169 T01440117 402670128 $

HOME

Condor Squadron KVNY Webcam

Visit our Electronics Store